Time;durP1;ratioP1;P1;durP2;ratioP2;P2;SDS_P1;SDS_P2;PMS_P1;PMS_P2;Temp;Humidity;BMP_temperature;BMP_pressure;BME280_temperature;BME280_humidity;BME280_pressure;Samples;Min_cycle;Max_cycle;Signal;HPM_P1;HPM_P2
2023/08/27 00:01:00;;;;;;;3.53;2.00;;;;;;;19.95;100.00;95734.09;5072301;28;20211;-65
2023/08/27 00:03:27;;;;;;;3.85;2.35;;;;;;;19.84;100.00;95732.28;5070233;28;20211;-66
2023/08/27 00:05:53;;;;;;;4.00;2.67;;;;;;;19.89;100.00;95728.88;5069949;28;20799;-65
2023/08/27 00:08:20;;;;;;;4.72;2.63;;;;;;;19.96;100.00;95735.72;5070234;28;20239;-66
2023/08/27 00:10:46;;;;;;;3.35;1.85;;;;;;;20.04;100.00;95735.28;5070516;28;20201;-66
2023/08/27 00:13:13;;;;;;;4.20;1.60;;;;;;;20.04;100.00;95734.47;5070743;28;20246;-66
2023/08/27 00:15:46;;;;;;;2.55;1.45;;;;;;;20.36;100.00;95738.91;5069826;28;20197;-66
2023/08/27 00:18:13;;;;;;;3.85;1.75;;;;;;;20.03;100.00;95739.00;5070469;28;20227;-65
2023/08/27 00:20:41;;;;;;;2.97;1.73;;;;;;;20.12;100.00;95726.81;5070352;28;20262;-65
2023/08/27 00:23:08;;;;;;;3.42;1.92;;;;;;;20.22;100.00;95733.09;5070208;28;20208;-66
2023/08/27 00:25:34;;;;;;;4.35;1.92;;;;;;;20.30;100.00;95729.19;5069537;28;20210;-66
2023/08/27 00:28:01;;;;;;;3.10;1.67;;;;;;;20.38;100.00;95724.22;5070151;28;20725;-66
2023/08/27 00:30:27;;;;;;;4.18;2.20;;;;;;;20.29;100.00;95727.59;5069413;28;20204;-66
2023/08/27 00:32:55;;;;;;;6.15;2.20;;;;;;;20.55;100.00;95721.47;5070372;28;20666;-66
2023/08/27 00:35:22;;;;;;;3.95;2.15;;;;;;;20.40;100.00;95735.50;5069711;28;20208;-65
2023/08/27 00:37:48;;;;;;;3.17;2.03;;;;;;;20.35;100.00;95739.97;5069934;28;20224;-67
2023/08/27 00:40:14;;;;;;;8.07;2.40;;;;;;;20.43;100.00;95744.88;5070256;28;20231;-66
2023/08/27 00:42:41;;;;;;;8.38;1.80;;;;;;;20.54;100.00;95747.41;5069277;28;20212;-65
2023/08/27 00:45:09;;;;;;;4.00;2.17;;;;;;;20.68;100.00;95747.84;5069898;28;21141;-66
2023/08/27 00:47:36;;;;;;;3.85;2.13;;;;;;;20.97;100.00;95750.09;5069174;28;20759;-66
2023/08/27 00:50:08;;;;;;;9.07;3.42;;;;;;;20.92;100.00;95742.78;5070105;28;20228;-66
2023/08/27 00:52:34;;;;;;;4.90;2.45;;;;;;;20.66;100.00;95729.38;5069009;28;20219;-67
2023/08/27 00:55:02;;;;;;;4.82;2.30;;;;;;;20.78;100.00;95723.91;5069862;28;20662;-65
2023/08/27 00:57:29;;;;;;;3.25;1.85;;;;;;;21.08;100.00;95712.44;5069193;28;20220;-66
2023/08/27 00:59:57;;;;;;;4.95;1.77;;;;;;;20.99;100.00;95722.00;5069690;28;21131;-64
2023/08/27 01:02:23;;;;;;;3.00;1.90;;;;;;;20.84;100.00;95713.00;5069447;28;20212;-65
2023/08/27 01:04:50;;;;;;;2.10;1.45;;;;;;;20.69;100.00;95710.13;5069764;28;21085;-66
2023/08/27 01:07:24;;;;;;;3.58;1.90;;;;;;;21.14;100.00;95694.53;5069399;28;20262;-66
2023/08/27 01:10:00;;;;;;;3.28;1.58;;;;;;;20.99;100.00;95684.47;5069184;28;20220;-66
2023/08/27 01:12:34;;;;;;;2.55;1.60;;;;;;;21.29;100.00;95690.09;5067657;28;20692;-66
2023/08/27 01:15:05;;;;;;;2.47;1.23;;;;;;;21.27;100.00;95696.78;5069406;28;20204;-66
2023/08/27 01:17:33;;;;;;;4.18;1.92;;;;;;;21.16;100.00;95693.19;5069000;28;20236;-66
2023/08/27 01:20:00;;;;;;;3.55;2.03;;;;;;;20.77;100.00;95696.31;5069146;28;20192;-66
2023/08/27 01:22:29;;;;;;;8.20;2.92;;;;;;;21.11;100.00;95678.97;5068602;28;20215;-66
2023/08/27 01:24:54;;;;;;;3.47;1.70;;;;;;;20.79;100.00;95666.63;5068880;28;20295;-66
2023/08/27 01:27:28;;;;;;;5.80;1.52;;;;;;;21.03;100.00;95658.00;5068605;28;20240;-65
2023/08/27 01:30:02;;;;;;;3.13;2.08;;;;;;;21.03;100.00;95656.13;5069045;28;20754;-66
2023/08/27 01:32:31;;;;;;;3.17;1.73;;;;;;;20.99;100.00;95664.91;5068356;28;20666;-66
2023/08/27 01:35:00;;;;;;;3.67;2.15;;;;;;;21.00;100.00;95675.38;5068489;28;20676;-66
2023/08/27 01:37:28;;;;;;;2.97;1.90;;;;;;;21.05;100.00;95675.44;5067933;28;20228;-66
2023/08/27 01:39:59;;;;;;;4.18;1.98;;;;;;;21.08;100.00;95682.97;5068635;28;20204;-66
2023/08/27 01:42:25;;;;;;;4.05;1.80;;;;;;;20.72;100.00;95695.41;5068411;28;20201;-66
2023/08/27 01:44:52;;;;;;;3.63;2.28;;;;;;;20.74;100.00;95712.88;5068212;28;20215;-66
2023/08/27 01:47:18;;;;;;;3.40;1.90;;;;;;;20.93;100.00;95709.59;5068152;28;20217;-66
2023/08/27 01:49:45;;;;;;;2.75;1.70;;;;;;;21.01;100.00;95701.09;5068034;28;20586;-66
2023/08/27 01:52:12;;;;;;;4.20;2.15;;;;;;;20.92;100.00;95704.50;5068801;28;20215;-66
2023/08/27 01:54:39;;;;;;;5.00;2.05;;;;;;;21.24;100.00;95703.44;5067860;28;20807;-65
2023/08/27 01:57:06;;;;;;;2.53;1.55;;;;;;;21.04;100.00;95699.78;5068774;28;20224;-66
2023/08/27 01:59:33;;;;;;;3.88;2.03;;;;;;;20.96;100.00;95695.72;5067991;28;20204;-65
2023/08/27 02:02:00;;;;;;;3.28;1.88;;;;;;;20.90;100.00;95710.13;5068553;28;20558;-66
2023/08/27 02:04:26;;;;;;;3.40;1.73;;;;;;;20.93;100.00;95690.84;5067673;28;20204;-66
2023/08/27 02:06:52;;;;;;;3.70;1.88;;;;;;;20.91;100.00;95687.63;5068350;28;20223;-65
2023/08/27 02:09:19;;;;;;;3.85;1.85;;;;;;;20.96;100.00;95685.00;5067800;28;20230;-66
2023/08/27 02:11:47;;;;;;;4.93;2.30;;;;;;;21.07;100.00;95702.75;5068182;28;20200;-65
2023/08/27 02:14:13;;;;;;;4.80;2.58;;;;;;;20.91;100.00;95709.06;5067682;28;20213;-66
2023/08/27 02:16:40;;;;;;;4.57;2.13;;;;;;;20.83;100.00;95710.56;5067780;28;20212;-66
2023/08/27 02:19:06;;;;;;;3.60;1.80;;;;;;;20.95;100.00;95695.94;5067903;28;20196;-66
2023/08/27 02:21:33;;;;;;;5.47;2.65;;;;;;;20.98;100.00;95693.56;5067723;28;20204;-65
2023/08/27 02:24:00;;;;;;;4.20;2.47;;;;;;;21.10;100.00;95680.00;5067927;28;20209;-67
2023/08/27 02:26:26;;;;;;;7.07;1.92;;;;;;;21.08;100.00;95677.59;5067428;28;20200;-65
2023/08/27 02:28:54;;;;;;;7.18;2.35;;;;;;;21.53;100.00;95680.66;5068192;28;20208;-66
2023/08/27 02:31:21;;;;;;;4.45;2.22;;;;;;;21.34;100.00;95678.63;5067350;28;20204;-66
2023/08/27 02:33:47;;;;;;;4.40;2.10;;;;;;;21.15;100.00;95688.09;5067900;28;20200;-66
2023/08/27 02:36:14;;;;;;;4.55;2.75;;;;;;;21.21;100.00;95682.53;5067140;28;20211;-67
2023/08/27 02:38:40;;;;;;;3.50;1.98;;;;;;;21.18;100.00;95685.72;5067856;28;20235;-66
2023/08/27 02:41:07;;;;;;;6.30;2.58;;;;;;;21.56;100.00;95690.88;5067084;28;20200;-66
2023/08/27 02:43:33;;;;;;;4.97;2.55;;;;;;;21.02;100.00;95694.69;5067473;28;20200;-66
2023/08/27 02:46:01;;;;;;;9.98;2.50;;;;;;;21.46;100.00;95704.19;5066967;28;20205;-66
2023/08/27 02:48:28;;;;;;;4.40;2.28;;;;;;;21.31;100.00;95700.56;5067401;28;20263;-66
2023/08/27 02:50:54;;;;;;;4.00;1.98;;;;;;;21.16;100.00;95695.09;5067305;28;20220;-65
2023/08/27 02:53:21;;;;;;;5.65;2.45;;;;;;;21.16;100.00;95695.09;5067986;28;20585;-66
2023/08/27 02:55:49;;;;;;;6.18;2.97;;;;;;;21.31;100.00;95687.97;5067232;28;20291;-66
2023/08/27 02:58:15;;;;;;;5.93;2.50;;;;;;;21.20;100.00;95694.31;5067838;28;20245;-66
2023/08/27 03:00:42;;;;;;;5.13;2.63;;;;;;;21.37;100.00;95703.00;5067578;28;21053;-66
2023/08/27 03:03:09;;;;;;;5.45;2.72;;;;;;;21.70;100.00;95705.44;5067903;28;20200;-67
2023/08/27 03:05:36;;;;;;;6.18;3.28;;;;;;;21.57;100.00;95709.38;5067201;28;20211;-65
2023/08/27 03:08:03;;;;;;;8.60;3.47;;;;;;;21.50;100.00;95713.34;5067569;28;20224;-66
2023/08/27 03:10:29;;;;;;;5.72;2.72;;;;;;;21.57;100.00;95716.63;5066980;28;20224;-66
2023/08/27 03:12:56;;;;;;;7.03;3.28;;;;;;;21.92;100.00;95717.69;5067965;28;20211;-66
2023/08/27 03:15:22;;;;;;;7.43;3.75;;;;;;;21.95;100.00;95702.94;5067101;28;20208;-66
2023/08/27 03:17:49;;;;;;;6.15;3.35;;;;;;;21.73;100.00;95686.19;5067499;28;20227;-66
2023/08/27 03:20:17;;;;;;;5.97;2.97;;;;;;;22.08;100.00;95695.22;5067110;28;20204;-66
2023/08/27 03:22:43;;;;;;;6.68;2.95;;;;;;;21.71;100.00;95705.19;5067271;28;20212;-66
2023/08/27 03:25:10;;;;;;;6.38;2.60;;;;;;;21.79;100.00;95709.25;5067158;28;20211;-66
2023/08/27 03:27:36;;;;;;;6.90;2.90;;;;;;;21.65;100.00;95706.22;5066576;28;20595;-65
2023/08/27 03:30:04;;;;;;;4.35;2.58;;;;;;;21.43;100.00;95710.88;5067071;28;20221;-66
2023/08/27 03:32:30;;;;;;;6.63;3.20;;;;;;;21.48;100.00;95704.72;5067205;28;20196;-66
2023/08/27 03:34:57;;;;;;;5.57;2.78;;;;;;;21.46;100.00;95706.88;5068208;28;20270;-65
2023/08/27 03:37:24;;;;;;;5.50;2.22;;;;;;;21.73;100.00;95715.69;5070512;28;20239;-67
2023/08/27 03:39:51;;;;;;;5.65;3.00;;;;;;;21.52;100.00;95712.03;5071105;28;20215;-66
2023/08/27 03:42:18;;;;;;;6.00;2.42;;;;;;;21.36;100.00;95722.88;5070397;28;21168;-65
2023/08/27 03:44:44;;;;;;;8.23;3.35;;;;;;;21.57;100.00;95708.56;5070821;28;20219;-66
2023/08/27 03:47:11;;;;;;;5.70;2.25;;;;;;;21.49;100.00;95707.13;5070319;28;20232;-66
2023/08/27 03:49:37;;;;;;;5.82;2.55;;;;;;;21.51;100.00;95709.59;5070161;28;20224;-65
2023/08/27 03:52:04;;;;;;;3.95;2.35;;;;;;;21.66;100.00;95715.06;5070349;28;20768;-66
2023/08/27 03:54:32;;;;;;;4.13;2.22;;;;;;;21.79;100.00;95720.00;5070538;28;20250;-64
2023/08/27 03:56:59;;;;;;;4.80;2.47;;;;;;;21.36;100.00;95717.50;5070493;28;20325;-66
2023/08/27 03:59:25;;;;;;;4.30;2.17;;;;;;;21.22;100.00;95718.16;5070345;28;20236;-65
2023/08/27 04:01:52;;;;;;;4.32;2.00;;;;;;;21.15;100.00;95715.69;5070541;28;20573;-64
2023/08/27 04:04:19;;;;;;;6.18;2.75;;;;;;;21.14;100.00;95713.28;5070096;28;20192;-66
2023/08/27 04:06:46;;;;;;;3.33;2.13;;;;;;;21.24;100.00;95710.69;5070494;28;20228;-66
2023/08/27 04:09:13;;;;;;;3.72;2.00;;;;;;;21.29;100.00;95706.19;5070019;28;20197;-66
2023/08/27 04:11:41;;;;;;;3.92;1.98;;;;;;;21.65;100.00;95708.91;5070768;28;20193;-66
2023/08/27 04:14:07;;;;;;;4.38;2.20;;;;;;;21.32;100.00;95715.56;5070336;28;20202;-67
2023/08/27 04:16:34;;;;;;;3.67;1.88;;;;;;;21.71;100.00;95709.75;5069986;28;20193;-67
2023/08/27 04:19:00;;;;;;;2.65;1.70;;;;;;;21.41;100.00;95714.03;5070265;28;20201;-66
2023/08/27 04:21:27;;;;;;;5.50;2.25;;;;;;;21.18;100.00;95720.56;5070286;28;20207;-66
2023/08/27 04:23:55;;;;;;;3.13;1.73;;;;;;;21.43;100.00;95721.59;5070335;28;20242;-66
2023/08/27 04:26:21;;;;;;;4.22;2.40;;;;;;;21.80;100.00;95729.66;5069273;28;20329;-66
2023/08/27 04:28:50;;;;;;;3.65;2.00;;;;;;;21.88;100.00;95723.81;5070084;28;20315;-65
2023/08/27 04:31:17;;;;;;;2.95;1.60;;;;;;;21.17;100.00;95718.94;5069652;28;20220;-66
2023/08/27 04:33:43;;;;;;;5.80;1.92;;;;;;;20.93;100.00;95727.56;5069800;28;20204;-65
2023/08/27 04:36:10;;;;;;;3.40;2.13;;;;;;;20.89;100.00;95716.53;5069823;28;20207;-65
2023/08/27 04:38:36;;;;;;;3.63;1.95;;;;;;;20.95;100.00;95731.59;5068993;28;20236;-65
